Time;durP1;ratioP1;P1;durP2;ratioP2;P2;SDS_P1;SDS_P2;PMS_P1;PMS_P2;Temp;Humidity;BMP_temperature;BMP_pressure;BME280_temperature;BME280_humidity;BME280_pressure;Samples;Min_cycle;Max_cycle;Signal;HPM_P1;HPM_P2
2022/10/12 00:02:06;;;;;;;13.05;6.03;;;;;;;;;;5051850;28;20021;-76
2022/10/12 00:04:32;;;;;;;12.85;5.05;;;;;;;;;;5051704;28;20020;-76
2022/10/12 00:06:58;;;;;;;17.58;5.13;;;;;;;;;;5051575;28;20538;-75
2022/10/12 00:09:24;;;;;;;16.60;4.50;;;;;;;;;;5051294;28;20025;-76
2022/10/12 00:11:50;;;;;;;14.38;5.47;;;;;;;;;;5051038;28;20502;-76
2022/10/12 00:14:16;;;;;;;14.75;5.45;;;;;;;;;;5051015;28;20056;-76
2022/10/12 00:16:42;;;;;;;12.82;5.30;;;;;;;;;;5051212;28;20013;-76
2022/10/12 00:19:12;;;;;;;14.90;5.00;;;;;;;;;;5051423;28;20025;-76
2022/10/12 00:21:38;;;;;;;12.68;4.97;;;;;;;;;;5051259;28;20048;-76
2022/10/12 00:24:05;;;;;;;10.48;5.07;;;;;;;;;;5036538;28;20483;-76
2022/10/12 00:26:32;;;;;;;14.40;5.30;;;;;;;;;;5054586;28;20502;-77
2022/10/12 00:28:59;;;;;;;14.15;4.93;;;;;;;;;;5054431;28;20100;-78
2022/10/12 00:31:26;;;;;;;13.38;5.10;;;;;;;;;;5054708;28;20392;-77
2022/10/12 00:33:52;;;;;;;9.93;4.57;;;;;;;;;;5054819;28;20114;-77
2022/10/12 00:36:20;;;;;;;12.65;4.45;;;;;;;;;;5054419;28;20041;-77
2022/10/12 00:38:46;;;;;;;11.38;4.70;;;;;;;;;;5054384;28;20024;-77
2022/10/12 00:41:13;;;;;;;12.05;5.40;;;;;;;;;;5036378;28;20032;-76
2022/10/12 00:43:40;;;;;;;10.18;4.30;;;;;;;;;;5054015;28;20107;-76
2022/10/12 00:46:26;;;;;;;14.40;4.40;;;;;;;;;;5054423;28;20032;-76
2022/10/12 00:49:11;;;;;;;13.23;4.95;;;;;;;;;;5008270;28;20040;-76
2022/10/12 00:51:39;;;;;;;13.30;4.53;;;;;;;;;;5036106;28;20021;-77
2022/10/12 00:54:07;;;;;;;11.25;4.80;;;;;;;;;;5054178;28;20024;-77
2022/10/12 00:56:36;;;;;;;11.85;4.97;;;;;;;;;;5054563;28;20033;-77
2022/10/12 00:59:04;;;;;;;12.23;4.90;;;;;;;;;;5054145;28;20067;-76
2022/10/12 01:01:33;;;;;;;14.07;5.53;;;;;;;;;;5051934;28;20075;-77
2022/10/12 01:03:59;;;;;;;11.70;4.78;;;;;;;;;;5050976;28;20451;-76
2022/10/12 01:06:25;;;;;;;13.15;4.43;;;;;;;;;;5049252;28;20098;-75
2022/10/12 01:08:51;;;;;;;10.32;4.43;;;;;;;;;;5052873;28;20032;-75
2022/10/12 01:11:17;;;;;;;12.80;4.50;;;;;;;;;;5035717;28;20031;-75
2022/10/12 01:13:43;;;;;;;14.30;4.57;;;;;;;;;;5053826;28;20029;-75
2022/10/12 01:16:25;;;;;;;11.10;5.20;;;;;;;;;;5053938;28;20048;-75
2022/10/12 01:18:54;;;;;;;16.40;7.28;;;;;;;;;;5042455;28;20044;-76
2022/10/12 01:21:21;;;;;;;14.48;5.57;;;;;;;;;;5053595;28;20021;-76
2022/10/12 01:23:57;;;;;;;11.38;5.57;;;;;;;;;;5035804;28;20025;-74
2022/10/12 01:26:32;;;;;;;15.95;6.50;;;;;;;;;;5053219;28;20033;-75
2022/10/12 01:29:12;;;;;;;11.55;5.38;;;;;;;;;;5035238;28;20446;-75
2022/10/12 01:31:45;;;;;;;14.55;5.38;;;;;;;;;;5053285;28;20368;-74
2022/10/12 01:34:17;;;;;;;10.30;5.00;;;;;;;;;;5053576;28;20146;-75
2022/10/12 01:36:43;;;;;;;;;;;;;;;;;;5078214;22;20045;-84
2022/10/12 01:42:50;;;;;;;;;;;;;;;;;;;;;
2022/10/12 01:48:49;;;;;;;9.48;4.63;;;;;;;;;;4954081;29;20035;-79
2022/10/12 01:54:58;;;;;;;10.98;4.50;;;;;;;;;;4897830;29;20029;-79
2022/10/12 02:06:17;;;;;;;9.48;4.20;;;;;;;;;;5052794;28;20075;-79
2022/10/12 02:08:52;;;;;;;15.82;4.40;;;;;;;;;;5053241;28;20033;-77
2022/10/12 02:14:45;;;;;;;10.20;4.03;;;;;;;;;;4980934;28;20110;-77
2022/10/12 02:17:22;;;;;;;8.65;3.88;;;;;;;;;;5052439;28;20021;-79
2022/10/12 02:23:38;;;;;;;17.90;4.80;;;;;;;;;;4989286;28;20028;-80
2022/10/12 02:26:30;;;;;;;16.80;4.60;;;;;;;;;;5053152;28;20082;-79
2022/10/12 02:29:04;;;;;;;14.15;4.63;;;;;;;;;;5042520;28;20028;-80
2022/10/12 02:31:48;;;;;;;14.55;4.72;;;;;;;;;;5033702;28;21292;-79
2022/10/12 02:34:52;;;;;;;8.57;4.15;;;;;;;;;;5035474;28;20494;-80
2022/10/12 02:51:57;;;;;;;9.65;4.20;;;;;;;;;;5065348;22;20416;-78
2022/10/12 02:54:23;;;;;;;10.68;4.80;;;;;;;;;;5051520;28;20025;-77
2022/10/12 02:56:49;;;;;;;15.25;4.70;;;;;;;;;;5051390;28;20395;-77
2022/10/12 02:59:16;;;;;;;13.48;4.85;;;;;;;;;;5051722;28;20025;-78
2022/10/12 03:01:43;;;;;;;9.65;4.30;;;;;;;;;;5051677;28;20108;-78
2022/10/12 03:04:09;;;;;;;11.80;4.53;;;;;;;;;;5052203;28;20498;-77
2022/10/12 03:06:35;;;;;;;16.23;5.75;;;;;;;;;;5052299;28;20390;-77
2022/10/12 03:09:01;;;;;;;8.57;4.47;;;;;;;;;;5052507;28;20025;-77
2022/10/12 03:11:27;;;;;;;13.82;5.07;;;;;;;;;;5061883;28;20025;-76
2022/10/12 03:13:54;;;;;;;10.55;4.70;;;;;;;;;;5046544;28;20025;-76
2022/10/12 03:16:20;;;;;;;11.90;4.20;;;;;;;;;;5043932;28;20121;-78
2022/10/12 03:18:46;;;;;;;11.45;4.18;;;;;;;;;;5041694;28;20075;-77
2022/10/12 03:21:12;;;;;;;9.20;4.25;;;;;;;;;;5059452;28;20048;-77
2022/10/12 03:23:38;;;;;;;14.40;4.43;;;;;;;;;;5035181;28;20122;-77
2022/10/12 03:26:05;;;;;;;18.58;4.97;;;;;;;;;;5052598;28;20032;-78
2022/10/12 03:28:31;;;;;;;13.10;3.80;;;;;;;;;;5033869;28;20434;-77
2022/10/12 03:30:57;;;;;;;15.48;4.45;;;;;;;;;;5053169;28;20052;-78
2022/10/12 03:33:23;;;;;;;17.48;4.68;;;;;;;;;;5051629;28;20025;-78
2022/10/12 03:35:49;;;;;;;15.48;4.93;;;;;;;;;;5033905;28;20394;-77
2022/10/12 03:38:16;;;;;;;15.55;4.93;;;;;;;;;;5051189;28;20425;-78
2022/10/12 03:40:42;;;;;;;15.30;4.75;;;;;;;;;;5051354;28;20021;-77
2022/10/12 03:43:09;;;;;;;9.60;4.28;;;;;;;;;;5033169;28;20494;-76
2022/10/12 03:45:35;;;;;;;13.75;4.03;;;;;;;;;;5033491;28;20025;-77
2022/10/12 03:48:01;;;;;;;13.13;4.00;;;;;;;;;;5032688;28;20032;-77
2022/10/12 03:50:27;;;;;;;10.40;4.38;;;;;;;;;;5051066;28;20411;-77
2022/10/12 03:52:53;;;;;;;12.90;4.88;;;;;;;;;;5050888;28;20021;-77
2022/10/12 03:55:19;;;;;;;13.38;4.70;;;;;;;;;;5033507;28;20013;-78
2022/10/12 03:57:45;;;;;;;11.00;4.88;;;;;;;;;;5052051;28;20037;-77
2022/10/12 04:00:12;;;;;;;11.02;5.07;;;;;;;;;;5054756;28;20031;-77
2022/10/12 04:02:39;;;;;;;12.77;5.43;;;;;;;;;;5055085;28;20564;-77
2022/10/12 04:05:05;;;;;;;10.70;4.32;;;;;;;;;;5054852;28;20021;-77
2022/10/12 04:07:31;;;;;;;11.00;5.60;;;;;;;;;;5054792;28;20021;-78
2022/10/12 04:09:57;;;;;;;12.68;5.88;;;;;;;;;;5055244;28;20013;-77
2022/10/12 04:12:23;;;;;;;15.05;6.18;;;;;;;;;;5055231;28;20021;-77
2022/10/12 04:14:49;;;;;;;19.63;6.13;;;;;;;;;;5054744;28;20423;-78
2022/10/12 04:17:15;;;;;;;13.15;5.57;;;;;;;;;;5054398;28;20490;-77
2022/10/12 04:19:41;;;;;;;12.40;6.13;;;;;;;;;;5054617;28;20038;-77
2022/10/12 04:22:07;;;;;;;14.00;5.38;;;;;;;;;;5054796;28;20013;-78
2022/10/12 04:24:33;;;;;;;10.65;5.43;;;;;;;;;;5036710;28;20028;-75
2022/10/12 04:26:59;;;;;;;12.25;5.30;;;;;;;;;;5054510;28;20044;-76
2022/10/12 04:29:26;;;;;;;15.70;5.47;;;;;;;;;;5054631;28;20032;-76
2022/10/12 04:31:52;;;;;;;9.75;5.18;;;;;;;;;;5054171;28;20021;-77
2022/10/12 04:34:17;;;;;;;12.70;5.38;;;;;;;;;;5054654;28;20032;-77
2022/10/12 04:36:43;;;;;;;10.65;5.00;;;;;;;;;;5054286;28;20387;-77
2022/10/12 04:39:09;;;;;;;13.70;5.30;;;;;;;;;;5037000;28;20025;-76
2022/10/12 04:41:36;;;;;;;12.38;5.35;;;;;;;;;;5055178;28;20021;-77
2022/10/12 04:44:01;;;;;;;16.83;6.15;;;;;;;;;;5055282;28;20022;-78
2022/10/12 04:46:27;;;;;;;10.88;5.40;;;;;;;;;;5055539;28;20029;-78
2022/10/12 04:48:53;;;;;;;13.63;5.60;;;;;;;;;;5055024;28;20118;-77
2022/10/12 04:51:19;;;;;;;12.95;5.38;;;;;;;;;;5054505;28;20036;-77
2022/10/12 04:53:45;;;;;;;9.52;5.60;;;;;;;;;;5037504;28;20115;-77
2022/10/12 04:56:11;;;;;;;15.25;5.18;;;;;;;;;;5036323;28;20458;-76
2022/10/12 04:58:40;;;;;;;15.40;5.88;;;;;;;;;;5053964;28;20025;-76
2022/10/12 05:01:06;;;;;;;11.57;4.95;;;;;;;;;;5053809;28;20021;-76
2022/10/12 05:03:32;;;;;;;17.33;5.80;;;;;;;;;;5035806;28;20475;-76
2022/10/12 05:05:58;;;;;;;12.43;4.78;;;;;;;;;;5035907;28;20371;-77
2022/10/12 05:08:24;;;;;;;16.10;5.63;;;;;;;;;;5053228;28;20110;-77
2022/10/12 05:10:50;;;;;;;12.43;6.03;;;;;;;;;;5054709;28;20112;-78
2022/10/12 05:13:16;;;;;;;14.30;5.30;;;;;;;;;;5054558;28;20031;-78
2022/10/12 05:15:43;;;;;;;14.27;5.28;;;;;;;;;;5054639;28;20033;-78
2022/10/12 05:18:09;;;;;;;20.10;5.97;;;;;;;;;;5055102;28;20047;-78
2022/10/12 05:20:36;;;;;;;15.63;5.60;;;;;;;;;;5053724;28;20063;-78
2022/10/12 05:23:02;;;;;;;16.63;6.18;;;;;;;;;;5053796;28;20025;-78
2022/10/12 05:25:28;;;;;;;14.60;5.82;;;;;;;;;;5036201;28;20107;-78
2022/10/12 05:27:54;;;;;;;11.73;5.43;;;;;;;;;;5053008;28;20033;-78
2022/10/12 05:30:21;;;;;;;10.98;5.40;;;;;;;;;;5035573;28;20032;-77
2022/10/12 05:32:47;;;;;;;11.30;5.43;;;;;;;;;;5050860;28;20079;-77
2022/10/12 05:35:13;;;;;;;12.38;5.70;;;;;;;;;;5044271;28;20021;-78
2022/10/12 05:37:39;;;;;;;14.85;5.15;;;;;;;;;;5053750;28;20109;-79
2022/10/12 05:40:06;;;;;;;11.30;5.00;;;;;;;;;;5054103;28;20045;-78
2022/10/12 05:42:33;;;;;;;14.48;5.70;;;;;;;;;;5053607;28;20021;-78
2022/10/12 05:48:10;;;;;;;15.23;6.32;;;;;;;;;;4958719;28;20121;-77
2022/10/12 05:54:17;;;;;;;21.95;6.18;;;;;;;;;;4961208;28;20140;-78
2022/10/12 05:57:12;;;;;;;;;;;;;;;;;;;;;
2022/10/12 05:59:39;;;;;;;10.48;4.38;;;;;;;;;;4957482;28;20447;-73
2022/10/12 06:02:05;;;;;;;14.48;4.55;;;;;;;;;;4952221;28;20099;-73
2022/10/12 06:04:31;;;;;;;9.70;3.35;;;;;;;;;;4952289;28;20111;-72
2022/10/12 06:06:57;;;;;;;10.75;3.95;;;;;;;;;;5037472;28;20037;-73
2022/10/12 06:09:23;;;;;;;10.45;3.78;;;;;;;;;;5052565;28;20401;-72
2022/10/12 06:11:49;;;;;;;9.25;3.13;;;;;;;;;;5052256;28;20387;-72
2022/10/12 06:14:15;;;;;;;7.55;3.05;;;;;;;;;;5052761;28;20479;-72
2022/10/12 06:16:41;;;;;;;6.90;3.30;;;;;;;;;;5052343;28;20060;-74
2022/10/12 06:19:10;;;;;;;6.80;3.03;;;;;;;;;;5052440;28;20078;-78
2022/10/12 06:21:36;;;;;;;9.70;3.70;;;;;;;;;;5051022;28;20087;-78
2022/10/12 06:24:02;;;;;;;9.70;3.30;;;;;;;;;;5035571;28;20029;-76
2022/10/12 06:26:28;;;;;;;5.78;2.55;;;;;;;;;;5054654;28;20037;-79
2022/10/12 06:28:54;;;;;;;6.78;3.15;;;;;;;;;;5053573;28;20041;-78
2022/10/12 06:31:21;;;;;;;7.90;3.30;;;;;;;;;;5051891;28;20104;-78
2022/10/12 06:33:49;;;;;;;6.22;2.88;;;;;;;;;;5051299;28;20029;-78
2022/10/12 06:36:15;;;;;;;11.43;3.78;;;;;;;;;;5052085;28;20048;-78
2022/10/12 06:38:41;;;;;;;17.08;3.50;;;;;;;;;;5051068;28;20475;-78
2022/10/12 06:41:07;;;;;;;6.95;2.63;;;;;;;;;;5050887;28;20035;-79
2022/10/12 06:43:34;;;;;;;8.93;3.67;;;;;;;;;;5034342;28;20021;-78
2022/10/12 06:46:00;;;;;;;8.75;3.47;;;;;;;;;;5052731;28;20067;-77
2022/10/12 06:48:26;;;;;;;6.95;2.83;;;;;;;;;;5052200;28;20036;-77
2022/10/12 06:50:52;;;;;;;13.02;4.53;;;;;;;;;;5034287;28;20047;-79
2022/10/12 06:53:18;;;;;;;9.10;3.28;;;;;;;;;;5054896;28;20033;-78
2022/10/12 06:55:44;;;;;;;6.95;2.72;;;;;;;;;;5047086;28;20051;-78
2022/10/12 06:58:10;;;;;;;17.35;3.72;;;;;;;;;;5034100;28;20051;-78
2022/10/12 07:00:37;;;;;;;7.65;2.85;;;;;;;;;;5051811;28;20021;-77
2022/10/12 07:03:03;;;;;;;10.05;3.13;;;;;;;;;;5052536;28;20075;-78
2022/10/12 07:05:29;;;;;;;6.53;2.65;;;;;;;;;;5035221;28;20021;-77
2022/10/12 07:07:56;;;;;;;8.02;2.55;;;;;;;;;;5052472;28;20039;-79
2022/10/12 07:10:23;;;;;;;8.25;2.28;;;;;;;;;;5052109;28;20094;-79
2022/10/12 07:12:49;;;;;;;11.18;3.45;;;;;;;;;;5052990;28;20028;-78
2022/10/12 07:15:15;;;;;;;9.05;2.65;;;;;;;;;;5038929;28;20389;-79
2022/10/12 07:17:41;;;;;;;11.10;3.03;;;;;;;;;;5051581;28;20025;-79
2022/10/12 07:20:07;;;;;;;17.55;3.25;;;;;;;;;;5033838;28;20078;-78
2022/10/12 07:22:33;;;;;;;8.05;2.88;;;;;;;;;;5051787;28;20376;-79
2022/10/12 07:24:59;;;;;;;8.70;2.67;;;;;;;;;;5051332;28;20017;-78
2022/10/12 07:27:25;;;;;;;10.80;2.70;;;;;;;;;;5051303;28;20033;-78
2022/10/12 07:29:51;;;;;;;6.75;2.38;;;;;;;;;;5033473;28;20399;-77
2022/10/12 07:32:17;;;;;;;8.25;2.85;;;;;;;;;;5050493;28;20028;-78
2022/10/12 07:34:43;;;;;;;10.45;2.63;;;;;;;;;;5049949;28;20017;-78
2022/10/12 07:37:10;;;;;;;9.60;2.80;;;;;;;;;;5049408;28;20044;-78
2022/10/12 07:39:36;;;;;;;11.43;3.40;;;;;;;;;;5050173;28;20472;-79
2022/10/12 07:42:02;;;;;;;11.32;3.33;;;;;;;;;;5031653;28;20013;-78
2022/10/12 07:44:29;;;;;;;14.85;3.65;;;;;;;;;;5050564;28;20100;-80
2022/10/12 07:46:55;;;;;;;9.10;2.78;;;;;;;;;;5044195;28;20035;-78
2022/10/12 07:49:21;;;;;;;20.58;3.70;;;;;;;;;;5044757;28;20465;-78
2022/10/12 07:51:47;;;;;;;14.88;3.58;;;;;;;;;;5043932;28;20029;-79
2022/10/12 07:54:14;;;;;;;8.18;2.75;;;;;;;;;;5041964;28;20032;-78
2022/10/12 07:56:40;;;;;;;12.35;2.92;;;;;;;;;;5051656;28;20029;-78
2022/10/12 07:59:06;;;;;;;10.73;2.85;;;;;;;;;;5045522;28;20023;-78
2022/10/12 08:01:33;;;;;;;13.32;2.97;;;;;;;;;;5025741;28;20430;-78
2022/10/12 08:03:59;;;;;;;9.73;3.00;;;;;;;;;;5051994;28;20017;-79
2022/10/12 08:06:27;;;;;;;14.77;3.55;;;;;;;;;;5049951;28;20061;-77
2022/10/12 08:08:53;;;;;;;24.25;3.70;;;;;;;;;;5034180;28;20017;-77
2022/10/12 08:11:19;;;;;;;6.22;3.25;;;;;;;;;;5033283;28;20029;-77
2022/10/12 08:13:45;;;;;;;8.27;3.58;;;;;;;;;;5051636;28;20032;-77
2022/10/12 08:16:13;;;;;;;15.43;3.38;;;;;;;;;;5052061;28;20021;-77
2022/10/12 08:18:39;;;;;;;11.93;3.30;;;;;;;;;;5051383;28;20029;-77
2022/10/12 08:21:06;;;;;;;14.27;3.60;;;;;;;;;;5049949;28;20021;-78
2022/10/12 08:23:33;;;;;;;14.32;3.22;;;;;;;;;;5049714;28;20017;-77
2022/10/12 08:25:59;;;;;;;13.52;3.25;;;;;;;;;;5050121;28;20075;-77
2022/10/12 08:28:25;;;;;;;9.07;3.42;;;;;;;;;;5050156;28;20029;-77
2022/10/12 08:30:51;;;;;;;13.02;3.70;;;;;;;;;;5051053;28;20035;-76
2022/10/12 08:33:18;;;;;;;10.48;2.78;;;;;;;;;;5050970;28;20032;-77
2022/10/12 08:35:44;;;;;;;13.70;3.80;;;;;;;;;;5033926;28;20029;-76
2022/10/12 08:38:11;;;;;;;11.55;3.10;;;;;;;;;;5033616;28;20394;-76
2022/10/12 08:40:57;;;;;;;11.35;3.17;;;;;;;;;;5052190;28;20039;-77
2022/10/12 08:43:34;;;;;;;10.50;4.10;;;;;;;;;;5017564;28;20112;-78
2022/10/12 08:46:01;;;;;;;10.80;4.20;;;;;;;;;;5074466;28;20029;-77
2022/10/12 08:48:45;;;;;;;10.90;3.55;;;;;;;;;;5070629;28;20044;-78
2022/10/12 08:51:14;;;;;;;9.85;3.28;;;;;;;;;;5095562;22;20399;-77
2022/10/12 08:53:40;;;;;;;12.10;3.72;;;;;;;;;;5077178;28;20418;-77
2022/10/12 08:56:07;;;;;;;12.35;3.97;;;;;;;;;;5076593;28;20020;-77
2022/10/12 08:58:36;;;;;;;13.95;3.97;;;;;;;;;;5075093;28;20486;-77
2022/10/12 09:01:14;;;;;;;11.13;4.00;;;;;;;;;;5057074;28;20115;-78
2022/10/12 09:03:49;;;;;;;13.35;4.20;;;;;;;;;;5062202;28;20064;-78
2022/10/12 09:06:18;;;;;;;12.63;4.22;;;;;;;;;;5056801;28;20028;-77
2022/10/12 09:08:56;;;;;;;12.48;4.53;;;;;;;;;;5074667;28;20046;-78
2022/10/12 09:11:29;;;;;;;12.65;4.43;;;;;;;;;;5056409;28;20033;-77
2022/10/12 09:14:14;;;;;;;13.60;4.65;;;;;;;;;;5074814;28;20033;-76
2022/10/12 09:16:42;;;;;;;8.45;3.40;;;;;;;;;;5056487;28;20051;-76
2022/10/12 09:19:30;;;;;;;13.57;3.70;;;;;;;;;;5057786;28;20021;-79
2022/10/12 09:21:56;;;;;;;13.20;4.07;;;;;;;;;;5075976;28;20016;-78
2022/10/12 09:24:25;;;;;;;6.80;2.70;;;;;;;;;;5078960;28;20062;-80
2022/10/12 09:26:53;;;;;;;14.68;3.13;;;;;;;;;;5074694;28;20077;-76
2022/10/12 09:29:26;;;;;;;7.97;2.53;;;;;;;;;;5073842;28;20037;-79
2022/10/12 09:32:11;;;;;;;18.35;2.88;;;;;;;;;;5073300;28;20028;-77
2022/10/12 09:34:37;;;;;;;10.00;3.72;;;;;;;;;;5073653;28;20043;-79
2022/10/12 09:37:03;;;;;;;15.07;3.60;;;;;;;;;;5073243;28;20031;-81
2022/10/12 09:39:31;;;;;;;9.52;3.53;;;;;;;;;;5055640;28;20075;-77
2022/10/12 09:41:57;;;;;;;14.88;3.75;;;;;;;;;;5055804;28;20039;-77
2022/10/12 09:44:29;;;;;;;11.93;4.00;;;;;;;;;;5073803;28;20031;-77
2022/10/12 09:46:59;;;;;;;16.17;3.67;;;;;;;;;;5073793;28;20470;-78
2022/10/12 09:49:44;;;;;;;10.98;3.03;;;;;;;;;;5074281;28;20309;-78
2022/10/12 09:52:12;;;;;;;14.30;2.90;;;;;;;;;;5075576;28;20028;-76
2022/10/12 09:54:47;;;;;;;7.57;3.03;;;;;;;;;;5073331;28;20035;-77
2022/10/12 09:57:32;;;;;;;16.83;4.10;;;;;;;;;;5073417;28;20161;-77
2022/10/12 09:59:59;;;;;;;13.30;3.47;;;;;;;;;;5073425;28;20016;-78
2022/10/12 10:02:26;;;;;;;13.52;3.78;;;;;;;;;;5073233;28;20081;-76
2022/10/12 10:04:52;;;;;;;13.52;3.47;;;;;;;;;;5055718;28;20021;-79
2022/10/12 10:07:19;;;;;;;12.20;3.53;;;;;;;;;;5073039;28;20044;-78
2022/10/12 10:09:45;;;;;;;13.20;3.47;;;;;;;;;;5078457;28;20047;-78
2022/10/12 10:12:27;;;;;;;11.30;3.45;;;;;;;;;;5055454;28;20078;-77
2022/10/12 10:14:55;;;;;;;8.63;3.38;;;;;;;;;;5055055;28;20020;-76
2022/10/12 10:17:29;;;;;;;16.92;3.38;;;;;;;;;;5055233;28;20448;-77
2022/10/12 10:19:56;;;;;;;17.13;3.17;;;;;;;;;;5072849;28;20012;-77
2022/10/12 10:22:23;;;;;;;15.52;3.80;;;;;;;;;;5072945;28;20020;-76
2022/10/12 10:24:50;;;;;;;9.77;3.58;;;;;;;;;;5072604;28;20551;-78
2022/10/12 10:27:45;;;;;;;13.80;3.47;;;;;;;;;;5081103;28;20031;-77
2022/10/12 10:30:20;;;;;;;15.52;3.67;;;;;;;;;;5069258;28;20035;-78
2022/10/12 10:32:47;;;;;;;8.60;3.30;;;;;;;;;;5066879;28;20462;-76
2022/10/12 10:35:13;;;;;;;8.73;3.35;;;;;;;;;;5082917;28;20024;-78
2022/10/12 10:37:42;;;;;;;11.93;3.75;;;;;;;;;;5076205;28;20036;-78
2022/10/12 10:40:16;;;;;;;7.80;2.97;;;;;;;;;;5075537;28;20091;-77
2022/10/12 10:42:44;;;;;;;13.88;3.85;;;;;;;;;;5072370;28;20017;-77
2022/10/12 10:45:20;;;;;;;10.65;3.17;;;;;;;;;;5072299;28;20092;-78
2022/10/12 10:47:46;;;;;;;12.38;3.60;;;;;;;;;;5054642;28;20028;-77
2022/10/12 10:50:34;;;;;;;7.28;3.30;;;;;;;;;;5072136;28;20395;-77
2022/10/12 10:53:02;;;;;;;10.52;3.13;;;;;;;;;;5072063;28;20033;-74
2022/10/12 10:55:48;;;;;;;13.82;3.70;;;;;;;;;;5077322;28;20496;-77
2022/10/12 10:58:35;;;;;;;8.10;3.38;;;;;;;;;;5063693;28;20044;-77
2022/10/12 11:01:05;;;;;;;9.05;2.97;;;;;;;;;;5064574;28;20104;-77
2022/10/12 11:03:37;;;;;;;5.45;3.00;;;;;;;;;;5054432;28;20060;-76
2022/10/12 11:06:06;;;;;;;9.07;3.25;;;;;;;;;;5072936;28;20440;-76
2022/10/12 11:08:33;;;;;;;19.27;4.00;;;;;;;;;;5072395;28;20063;-77
2022/10/12 11:11:02;;;;;;;9.57;3.22;;;;;;;;;;5072592;28;20082;-77
2022/10/12 11:13:31;;;;;;;10.95;3.13;;;;;;;;;;5059875;28;20032;-77
2022/10/12 11:15:59;;;;;;;7.28;3.28;;;;;;;;;;5063418;28;20031;-77
2022/10/12 11:18:37;;;;;;;7.80;2.70;;;;;;;;;;5081198;28;20055;-78
2022/10/12 11:21:15;;;;;;;7.82;2.47;;;;;;;;;;5080696;28;20100;-79
2022/10/12 11:23:45;;;;;;;11.48;3.17;;;;;;;;;;5066466;28;20099;-77
2022/10/12 11:26:11;;;;;;;8.05;2.70;;;;;;;;;;5075250;28;20025;-79
2022/10/12 11:28:38;;;;;;;13.30;3.33;;;;;;;;;;5075308;28;20085;-80
2022/10/12 11:31:04;;;;;;;6.90;3.00;;;;;;;;;;5075254;28;20021;-77
2022/10/12 11:33:37;;;;;;;15.38;3.78;;;;;;;;;;5077252;28;20039;-74
2022/10/12 11:36:03;;;;;;;13.40;3.22;;;;;;;;;;5093134;28;20016;-74
2022/10/12 11:38:42;;;;;;;9.48;3.40;;;;;;;;;;5090373;28;20032;-79
2022/10/12 11:41:10;;;;;;;8.75;3.25;;;;;;;;;;5094099;28;20025;-79
2022/10/12 11:43:47;;;;;;;17.13;3.42;;;;;;;;;;5059077;28;20071;-78
2022/10/12 11:46:17;;;;;;;11.90;3.08;;;;;;;;;;5074501;28;20029;-76
2022/10/12 11:48:43;;;;;;;7.55;2.63;;;;;;;;;;5072477;28;20060;-77
2022/10/12 11:51:10;;;;;;;8.85;2.83;;;;;;;;;;5071777;28;20066;-76
2022/10/12 11:53:54;;;;;;;15.07;3.80;;;;;;;;;;5058336;28;20028;-78
2022/10/12 11:56:30;;;;;;;10.85;3.28;;;;;;;;;;5055984;28;20144;-79
2022/10/12 11:59:10;;;;;;;11.05;3.40;;;;;;;;;;5053254;28;20020;-78
2022/10/12 12:01:45;;;;;;;10.48;2.65;;;;;;;;;;5071884;28;20039;-79
2022/10/12 12:04:23;;;;;;;12.10;3.72;;;;;;;;;;5072283;28;20032;-77
2022/10/12 12:06:50;;;;;;;7.65;3.03;;;;;;;;;;5072182;28;20024;-77
2022/10/12 12:09:22;;;;;;;8.73;3.05;;;;;;;;;;5072238;28;20025;-80
2022/10/12 12:11:48;;;;;;;14.23;2.80;;;;;;;;;;5076256;28;20024;-78
2022/10/12 12:14:25;;;;;;;10.63;3.10;;;;;;;;;;5071782;28;20021;-78
2022/10/12 12:17:10;;;;;;;11.15;3.28;;;;;;;;;;5056053;28;20115;-77
2022/10/12 12:19:40;;;;;;;6.32;2.35;;;;;;;;;;5078628;28;20025;-76
2022/10/12 12:22:11;;;;;;;7.88;3.10;;;;;;;;;;5073408;28;20096;-77
2022/10/12 12:24:37;;;;;;;9.95;3.17;;;;;;;;;;5057044;28;20039;-77
2022/10/12 12:27:03;;;;;;;13.77;4.07;;;;;;;;;;5074407;28;20024;-77
2022/10/12 12:29:29;;;;;;;6.97;2.65;;;;;;;;;;5064385;28;20029;-77
2022/10/12 12:31:57;;;;;;;14.75;3.10;;;;;;;;;;5081445;28;20066;-76
2022/10/12 12:34:23;;;;;;;10.48;2.55;;;;;;;;;;5063067;28;20025;-80
2022/10/12 12:36:51;;;;;;;10.10;3.05;;;;;;;;;;5076764;28;20024;-77
2022/10/12 12:39:23;;;;;;;13.90;3.17;;;;;;;;;;5059141;28;20048;-77
2022/10/12 12:41:53;;;;;;;6.22;2.65;;;;;;;;;;5075909;28;20021;-77
2022/10/12 12:44:39;;;;;;;12.23;3.77;;;;;;;;;;5074962;28;20023;-77
2022/10/12 12:47:08;;;;;;;9.07;3.08;;;;;;;;;;5074397;28;20025;-77
2022/10/12 12:49:37;;;;;;;8.27;2.85;;;;;;;;;;5075202;28;20040;-77
2022/10/12 12:52:11;;;;;;;12.02;3.45;;;;;;;;;;5074567;28;20035;-78
2022/10/12 12:54:42;;;;;;;14.13;3.40;;;;;;;;;;5056623;28;20031;-78
2022/10/12 12:57:23;;;;;;;7.07;2.80;;;;;;;;;;5074750;28;20506;-79
2022/10/12 12:59:58;;;;;;;11.20;3.28;;;;;;;;;;5074634;28;20119;-78
2022/10/12 13:02:43;;;;;;;15.88;3.38;;;;;;;;;;5074141;28;20024;-78
2022/10/12 13:05:09;;;;;;;7.57;2.75;;;;;;;;;;5074466;28;20016;-77
2022/10/12 13:07:38;;;;;;;10.60;2.88;;;;;;;;;;5074131;28;20065;-78
2022/10/12 13:10:04;;;;;;;8.20;2.90;;;;;;;;;;5073931;28;20095;-79
2022/10/12 13:12:49;;;;;;;6.50;2.80;;;;;;;;;;5074293;28;20438;-79
2022/10/12 13:15:17;;;;;;;8.95;2.80;;;;;;;;;;5073991;28;20025;-77
2022/10/12 13:17:53;;;;;;;12.93;3.33;;;;;;;;;;5073801;28;20037;-79
2022/10/12 13:20:22;;;;;;;7.43;2.78;;;;;;;;;;5073976;28;20117;-78
2022/10/12 13:22:49;;;;;;;9.88;2.80;;;;;;;;;;5073290;28;20490;-77
2022/10/12 13:25:21;;;;;;;8.70;3.35;;;;;;;;;;5058909;28;20020;-77
2022/10/12 13:27:48;;;;;;;7.90;2.40;;;;;;;;;;5072941;28;20379;-77
2022/10/12 13:30:20;;;;;;;8.20;3.65;;;;;;;;;;5072963;28;20017;-76
2022/10/12 13:32:49;;;;;;;16.90;3.85;;;;;;;;;;5065796;28;20471;-78
2022/10/12 13:35:21;;;;;;;9.18;2.70;;;;;;;;;;5059532;28;20558;-77
2022/10/12 13:37:59;;;;;;;6.85;3.17;;;;;;;;;;5073450;28;20029;-77
2022/10/12 13:40:36;;;;;;;11.85;3.42;;;;;;;;;;5073913;28;20025;-76
2022/10/12 13:43:26;;;;;;;8.48;2.78;;;;;;;;;;5073524;28;20374;-77
2022/10/12 13:45:52;;;;;;;9.18;2.90;;;;;;;;;;5073867;28;20017;-78
2022/10/12 13:48:20;;;;;;;12.98;2.80;;;;;;;;;;5072762;28;20195;-78
2022/10/12 13:50:51;;;;;;;12.73;2.97;;;;;;;;;;5073396;28;20040;-77
2022/10/12 13:53:17;;;;;;;10.73;3.03;;;;;;;;;;5073117;28;20095;-77
2022/10/12 13:55:56;;;;;;;8.85;3.08;;;;;;;;;;5073015;28;20464;-77
2022/10/12 13:58:32;;;;;;;12.45;2.97;;;;;;;;;;5072522;28;20111;-76
2022/10/12 14:00:59;;;;;;;10.57;3.08;;;;;;;;;;5073430;28;20019;-76
2022/10/12 14:03:27;;;;;;;8.65;3.25;;;;;;;;;;5073060;28;20024;-78
2022/10/12 14:05:53;;;;;;;7.68;2.88;;;;;;;;;;5073359;28;20353;-77
2022/10/12 14:08:23;;;;;;;9.30;3.22;;;;;;;;;;5072542;28;20020;-78
2022/10/12 14:10:49;;;;;;;21.35;5.78;;;;;;;;;;5072510;28;20436;-77
2022/10/12 14:13:18;;;;;;;12.32;3.92;;;;;;;;;;5073209;28;20017;-77
2022/10/12 14:15:44;;;;;;;11.00;3.30;;;;;;;;;;5072982;28;20033;-78
2022/10/12 14:18:29;;;;;;;10.60;3.70;;;;;;;;;;5072724;28;20703;-77
2022/10/12 14:21:10;;;;;;;12.88;3.60;;;;;;;;;;5072863;28;20056;-78
2022/10/12 14:23:40;;;;;;;9.50;3.70;;;;;;;;;;5059426;28;20020;-78
2022/10/12 14:26:19;;;;;;;8.80;3.38;;;;;;;;;;5054829;28;20025;-78
2022/10/12 14:28:45;;;;;;;15.13;4.85;;;;;;;;;;5072304;28;20082;-78
2022/10/12 14:31:11;;;;;;;11.18;3.83;;;;;;;;;;5072224;28;20029;-77
2022/10/12 14:33:37;;;;;;;9.75;4.03;;;;;;;;;;5072456;28;20021;-75
2022/10/12 14:36:29;;;;;;;12.98;4.50;;;;;;;;;;5072886;28;20486;-76
2022/10/12 14:38:55;;;;;;;8.35;3.33;;;;;;;;;;5057661;28;20510;-78
2022/10/12 14:41:40;;;;;;;11.63;3.50;;;;;;;;;;5071763;28;20028;-79
2022/10/12 14:44:13;;;;;;;11.95;4.68;;;;;;;;;;5072247;28;20020;-78
2022/10/12 14:46:45;;;;;;;7.90;3.55;;;;;;;;;;5054533;28;20059;-78
2022/10/12 14:49:16;;;;;;;13.43;4.95;;;;;;;;;;5072162;28;20044;-77
2022/10/12 14:51:42;;;;;;;7.80;3.80;;;;;;;;;;5073497;28;20032;-78
2022/10/12 14:54:09;;;;;;;8.55;3.78;;;;;;;;;;5072433;28;20052;-78
2022/10/12 14:56:34;;;;;;;14.52;3.95;;;;;;;;;;5072106;28;20031;-78
2022/10/12 14:59:00;;;;;;;9.75;4.15;;;;;;;;;;5072037;28;20024;-77
2022/10/12 15:01:26;;;;;;;9.88;4.13;;;;;;;;;;5054058;28;20383;-79
2022/10/12 15:03:52;;;;;;;7.85;3.72;;;;;;;;;;5072391;28;20027;-77
2022/10/12 15:06:18;;;;;;;14.65;4.50;;;;;;;;;;5072002;28;20029;-77
2022/10/12 15:08:44;;;;;;;25.02;4.97;;;;;;;;;;5071635;28;20030;-77
2022/10/12 15:11:11;;;;;;;11.55;4.65;;;;;;;;;;5053653;28;20025;-76
2022/10/12 15:13:41;;;;;;;14.00;5.22;;;;;;;;;;5071957;28;20025;-77
2022/10/12 15:16:15;;;;;;;13.85;4.10;;;;;;;;;;5071881;28;20021;-77
2022/10/12 15:18:41;;;;;;;11.90;4.40;;;;;;;;;;5072139;28;20074;-79
2022/10/12 15:21:08;;;;;;;13.38;4.20;;;;;;;;;;5071927;28;20024;-78
2022/10/12 15:23:34;;;;;;;13.07;4.32;;;;;;;;;;5069966;28;20020;-76
2022/10/12 15:26:00;;;;;;;12.68;4.25;;;;;;;;;;5062176;28;20387;-76
2022/10/12 15:28:28;;;;;;;10.25;4.20;;;;;;;;;;5051430;28;20128;-75
2022/10/12 15:30:58;;;;;;;12.85;4.43;;;;;;;;;;5058803;28;20542;-77
2022/10/12 15:33:24;;;;;;;12.88;4.55;;;;;;;;;;5069521;28;20020;-76
2022/10/12 15:35:50;;;;;;;12.27;4.70;;;;;;;;;;5053280;28;20021;-75
2022/10/12 15:38:16;;;;;;;11.80;4.07;;;;;;;;;;5070347;28;20024;-75